Time;durP1;ratioP1;P1;durP2;ratioP2;P2;SDS_P1;SDS_P2;PMS_P1;PMS_P2;Temp;Humidity;BMP_temperature;BMP_pressure;BME280_temperature;BME280_humidity;BME280_pressure;Samples;Min_cycle;Max_cycle;Signal;HPM_P1;HPM_P2
2022/06/02 00:00:13;;;;;;;8.70;6.63;;;;;;;8.36;78.54;101887.69;5006149;28;20054;-70
2022/06/02 00:02:59;;;;;;;9.90;6.90;;;;;;;8.37;79.94;101893.06;4996209;28;20449;-70
2022/06/02 00:05:52;;;;;;;8.88;6.22;;;;;;;8.35;79.07;101883.22;4993068;28;20441;-70
2022/06/02 00:08:36;;;;;;;12.50;6.57;;;;;;;8.37;79.09;101887.66;4975675;28;20096;-70
2022/06/02 00:11:15;;;;;;;9.20;5.82;;;;;;;8.35;78.89;101889.53;5004838;28;20042;-70
2022/06/02 00:13:59;;;;;;;7.28;5.65;;;;;;;8.32;79.20;101892.38;5006840;28;20583;-70
2022/06/02 00:16:36;;;;;;;11.05;6.45;;;;;;;8.29;78.64;101903.34;4994521;28;20035;-69
2022/06/02 00:19:41;;;;;;;9.50;6.32;;;;;;;8.27;78.65;101897.13;5001145;28;20388;-69
2022/06/02 00:22:16;;;;;;;7.65;6.20;;;;;;;8.18;79.69;101893.00;4976699;28;20053;-70
2022/06/02 00:25:08;;;;;;;7.00;5.68;;;;;;;8.17;78.95;101901.22;5005029;28;20036;-70
2022/06/02 00:27:47;;;;;;;8.70;5.70;;;;;;;8.12;78.93;101904.13;5008912;28;20034;-69
2022/06/02 00:30:25;;;;;;;8.43;6.00;;;;;;;8.07;79.13;101903.47;4990856;28;20672;-70
2022/06/02 00:33:12;;;;;;;8.52;6.20;;;;;;;8.00;79.47;101898.38;4985079;28;20046;-69
2022/06/02 00:36:00;;;;;;;13.95;6.32;;;;;;;7.94;79.95;101899.53;5010505;28;20463;-70
2022/06/02 00:38:34;;;;;;;10.70;6.82;;;;;;;7.88;80.77;101903.41;5006388;28;20053;-70
2022/06/02 00:41:21;;;;;;;10.02;6.32;;;;;;;7.87;79.63;101909.75;5010595;28;20037;-70
2022/06/02 00:43:50;;;;;;;10.07;6.75;;;;;;;7.84;79.96;101909.03;5008749;28;20528;-70
2022/06/02 00:46:48;;;;;;;10.23;6.63;;;;;;;7.83;80.40;101902.72;4999916;28;20442;-69
2022/06/02 00:49:21;;;;;;;13.95;7.18;;;;;;;7.80;81.33;101902.84;5002142;28;20632;-69
2022/06/02 00:52:11;;;;;;;9.40;6.28;;;;;;;7.76;79.77;101900.34;5009627;28;20484;-68
2022/06/02 00:57:44;;;;;;;9.98;5.90;;;;;;;7.76;80.30;101909.34;4999072;28;20465;-69
2022/06/02 01:00:18;;;;;;;10.05;5.85;;;;;;;7.75;80.49;101906.72;4990975;28;20041;-69
2022/06/02 01:02:47;;;;;;;11.30;6.18;;;;;;;7.74;79.83;101911.25;4997891;28;20026;-69
2022/06/02 01:05:15;;;;;;;8.43;6.05;;;;;;;7.69;81.24;101905.13;5007941;28;20120;-70
2022/06/02 01:07:53;;;;;;;10.80;6.93;;;;;;;7.64;81.94;101904.44;5006162;28;20038;-69
2022/06/02 01:10:46;;;;;;;8.35;6.53;;;;;;;7.64;80.41;101904.44;5006453;28;20044;-69
2022/06/02 01:13:38;;;;;;;7.82;6.47;;;;;;;7.63;80.25;101905.41;5009436;28;20033;-69
2022/06/02 01:16:48;;;;;;;9.18;6.05;;;;;;;7.62;79.36;101907.22;4997966;28;20390;-69
2022/06/02 01:19:30;;;;;;;11.95;6.00;;;;;;;7.55;80.02;101907.56;4925818;29;20082;-69
2022/06/02 01:22:07;;;;;;;6.95;5.63;;;;;;;7.52;79.75;101905.00;4924766;29;20649;-69
2022/06/02 01:24:44;;;;;;;11.40;7.25;;;;;;;7.49;79.91;101910.53;4963990;28;20045;-70
2022/06/02 01:27:10;;;;;;;9.38;6.47;;;;;;;7.44;80.57;101904.44;5004535;28;20038;-68
2022/06/02 01:29:44;;;;;;;8.93;6.70;;;;;;;7.40;79.80;101912.69;5008276;28;21003;-69
2022/06/02 01:32:16;;;;;;;10.45;6.55;;;;;;;7.35;79.89;101909.28;5000993;28;20048;-69
2022/06/02 01:35:00;;;;;;;13.27;6.80;;;;;;;7.33;79.93;101911.19;4989391;28;20033;-69
2022/06/02 01:37:47;;;;;;;14.40;7.90;;;;;;;7.27;80.86;101914.13;4983646;28;20050;-69
2022/06/02 01:40:31;;;;;;;11.05;6.95;;;;;;;7.24;80.45;101905.28;5003891;28;20036;-69
2022/06/02 01:43:05;;;;;;;10.35;7.50;;;;;;;7.22;80.87;101915.28;5008934;28;20056;-69
2022/06/02 01:45:43;;;;;;;13.05;9.85;;;;;;;7.23;81.30;101906.19;5004913;28;20049;-69
2022/06/02 01:48:29;;;;;;;14.32;9.40;;;;;;;7.14;81.23;101902.94;4967512;28;20045;-69
2022/06/02 01:51:15;;;;;;;12.27;9.30;;;;;;;7.19;81.21;101908.19;4996964;28;20050;-69
2022/06/02 01:53:59;;;;;;;14.80;8.70;;;;;;;7.22;81.00;101901.75;4995924;28;20042;-69
2022/06/02 01:56:46;;;;;;;16.30;9.35;;;;;;;7.21;81.56;101908.09;4998100;28;20078;-69
2022/06/02 01:59:49;;;;;;;18.08;8.48;;;;;;;7.20;81.14;101901.81;4989985;28;20111;-69
2022/06/02 02:02:19;;;;;;;9.98;7.32;;;;;;;7.14;81.01;101899.38;4998952;28;20030;-69
2022/06/02 02:05:05;;;;;;;9.57;7.47;;;;;;;7.13;80.83;101900.28;5008870;28;20086;-69
2022/06/02 02:07:49;;;;;;;11.52;8.45;;;;;;;7.09;80.98;101904.09;5009108;28;20045;-69
2022/06/02 02:10:39;;;;;;;10.52;7.75;;;;;;;7.03;80.98;101904.31;5001221;28;20381;-69
2022/06/02 02:13:29;;;;;;;10.90;8.13;;;;;;;7.01;80.51;101908.94;5002290;28;20045;-69
2022/06/02 02:16:28;;;;;;;11.05;7.45;;;;;;;6.97;80.67;101907.28;4999202;28;20034;-69
2022/06/02 02:19:05;;;;;;;12.35;7.55;;;;;;;6.92;81.51;101921.00;5005805;28;20397;-69
2022/06/02 02:21:56;;;;;;;11.45;7.90;;;;;;;6.88;80.59;101913.94;5005211;28;20056;-68
2022/06/02 02:24:49;;;;;;;10.50;6.78;;;;;;;6.84;80.39;101923.13;5001926;28;20049;-69
2022/06/02 02:28:02;;;;;;;10.25;6.65;;;;;;;6.77;80.62;101918.91;5005055;28;20517;-69
2022/06/02 02:30:18;;;;;;;;;;;;;;;6.80;79.04;101922.34;5002881;28;20033;-69
2022/06/02 02:32:55;;;;;;;9.50;7.22;;;;;;;6.74;80.93;101927.13;4989085;28;19959;-69
2022/06/02 02:35:31;;;;;;;10.50;6.13;;;;;;;6.70;80.92;101925.47;4989740;28;20037;-69
2022/06/02 02:38:05;;;;;;;11.13;6.57;;;;;;;6.67;80.62;101925.59;4986723;28;20048;-68
2022/06/02 02:40:54;;;;;;;9.25;6.43;;;;;;;6.64;80.46;101924.78;5001911;28;20071;-70
2022/06/02 02:43:25;;;;;;;8.38;6.10;;;;;;;6.61;80.77;101932.13;5005590;28;20029;-70
2022/06/02 02:46:14;;;;;;;9.20;6.00;;;;;;;6.59;80.85;101925.91;5003937;28;20066;-69
2022/06/02 02:49:04;;;;;;;9.75;6.10;;;;;;;6.55;80.52;101940.47;4983538;28;20037;-68
2022/06/02 02:51:45;;;;;;;8.48;5.93;;;;;;;6.53;80.79;101928.84;5003862;28;20559;-69
2022/06/02 02:54:25;;;;;;;11.80;7.07;;;;;;;6.49;80.95;101929.91;5002112;28;20128;-69
2022/06/02 02:57:20;;;;;;;9.35;6.38;;;;;;;6.46;81.16;101924.59;5004651;28;20501;-69
2022/06/02 02:59:58;;;;;;;8.02;6.15;;;;;;;6.43;81.24;101924.72;4982027;28;20070;-69
2022/06/02 03:02:45;;;;;;;10.93;7.05;;;;;;;6.44;80.88;101942.72;4984030;28;20038;-69
2022/06/02 03:05:13;;;;;;;8.10;5.82;;;;;;;6.40;81.25;101941.94;5001834;28;20120;-69
2022/06/02 03:07:38;;;;;;;8.10;6.00;;;;;;;6.39;80.83;101932.09;5006928;28;20034;-69
2022/06/02 03:10:18;;;;;;;10.77;6.25;;;;;;;6.39;81.15;101940.19;5001449;28;20041;-69
2022/06/02 03:13:00;;;;;;;10.35;6.65;;;;;;;6.36;81.03;101941.16;4986503;28;20042;-69
2022/06/02 03:15:37;;;;;;;10.25;7.28;;;;;;;6.36;81.22;101948.41;4998078;28;20038;-69
2022/06/02 03:18:17;;;;;;;11.30;7.38;;;;;;;6.32;81.52;101952.16;4994793;28;20029;-69
2022/06/02 03:20:58;;;;;;;11.48;7.03;;;;;;;6.28;82.22;101948.66;5008407;28;20052;-70
2022/06/02 03:23:52;;;;;;;13.40;7.90;;;;;;;6.23;81.62;101956.06;5003783;28;20042;-68
2022/06/02 03:26:39;;;;;;;12.73;8.02;;;;;;;6.20;82.13;101952.59;4994719;28;20038;-70
2022/06/02 03:29:11;;;;;;;10.40;6.80;;;;;;;6.21;81.96;101954.38;5005342;28;20033;-69
2022/06/02 03:31:48;;;;;;;10.45;6.88;;;;;;;6.17;81.69;101955.44;4992808;28;20080;-69
2022/06/02 03:34:25;;;;;;;12.60;7.30;;;;;;;6.17;81.51;101959.00;4998000;28;20034;-69
2022/06/02 03:37:01;;;;;;;8.98;7.00;;;;;;;6.18;82.05;101965.28;5001199;28;20038;-70
2022/06/02 03:39:48;;;;;;;12.50;7.22;;;;;;;6.17;82.13;101967.13;4985876;28;20049;-70
2022/06/02 03:42:48;;;;;;;10.90;7.22;;;;;;;6.16;81.54;101970.75;5000102;28;20790;-70
2022/06/02 03:45:35;;;;;;;11.05;6.82;;;;;;;6.13;81.68;101965.44;4935762;28;20140;-69
2022/06/02 03:48:07;;;;;;;8.98;5.72;;;;;;;6.11;82.31;101972.75;4998670;28;20366;-70
2022/06/02 03:50:46;;;;;;;9.30;6.10;;;;;;;6.12;81.60;101980.78;5001324;28;20044;-69
2022/06/02 03:53:33;;;;;;;9.95;6.80;;;;;;;6.14;81.80;101978.00;5000825;28;20041;-70
2022/06/02 03:56:10;;;;;;;9.43;6.90;;;;;;;6.13;81.81;101973.56;5009735;28;20140;-70
2022/06/02 03:59:14;;;;;;;18.98;6.85;;;;;;;6.11;82.60;101981.72;5012938;28;20437;-70
2022/06/02 04:01:40;;;;;;;;;;;;;;;6.14;80.54;101987.00;5000712;28;20084;-69
2022/06/02 04:04:24;;;;;;;8.70;6.43;;;;;;;6.16;82.08;101986.09;5004235;28;19914;-69
2022/06/02 04:07:08;;;;;;;7.43;5.30;;;;;;;6.18;82.01;101987.78;5008687;28;20029;-69
2022/06/02 04:10:07;;;;;;;8.98;5.82;;;;;;;6.21;81.56;101987.69;5005199;28;20544;-69
2022/06/02 04:15:46;;;;;;;11.18;6.47;;;;;;;6.25;82.53;101992.03;5003588;28;20034;-69
2022/06/02 04:18:39;;;;;;;8.02;5.75;;;;;;;6.28;81.99;101994.63;5011827;28;20059;-68
2022/06/02 04:21:25;;;;;;;9.80;5.75;;;;;;;6.32;82.27;102003.50;5013492;28;20437;-69
2022/06/02 04:24:14;;;;;;;10.38;5.93;;;;;;;6.34;81.75;101996.19;4998701;28;20477;-69
2022/06/02 04:26:42;;;;;;;11.45;6.45;;;;;;;6.35;82.24;101995.28;5001764;28;20063;-69
2022/06/02 04:29:15;;;;;;;8.60;6.40;;;;;;;6.39;81.88;102002.34;5013010;28;20039;-69
2022/06/02 04:31:59;;;;;;;;;;;;;;;6.47;80.46;102004.75;5005216;28;20041;-70
2022/06/02 04:34:53;;;;;;;11.27;6.43;;;;;;;6.47;81.29;102002.06;5011188;28;19956;-70
2022/06/02 04:37:36;;;;;;;10.60;7.70;;;;;;;6.49;82.34;102005.59;4991527;28;20493;-69
2022/06/02 04:40:20;;;;;;;10.65;7.68;;;;;;;6.52;82.01;102002.75;5005584;28;20038;-69
2022/06/02 04:42:57;;;;;;;10.85;7.30;;;;;;;6.55;82.53;102008.06;4983685;28;20093;-69
2022/06/02 04:45:40;;;;;;;11.27;7.10;;;;;;;6.58;82.12;102005.25;5005287;28;20037;-69
2022/06/02 04:48:15;;;;;;;11.38;8.05;;;;;;;6.62;83.01;102013.19;5006007;28;20366;-69
2022/06/02 04:50:49;;;;;;;12.27;7.18;;;;;;;6.65;82.89;102012.19;5009924;28;20057;-69
2022/06/02 04:53:32;;;;;;;11.40;7.65;;;;;;;6.71;82.17;102014.66;5004417;28;20080;-69
2022/06/02 04:56:29;;;;;;;11.65;7.90;;;;;;;6.79;82.20;102014.38;5000659;28;20026;-69
2022/06/02 04:59:19;;;;;;;12.68;8.25;;;;;;;6.86;82.19;102021.34;5003452;28;20442;-69
2022/06/02 05:02:09;;;;;;;12.00;7.60;;;;;;;6.93;81.99;102025.53;4987993;28;20129;-69
2022/06/02 05:04:51;;;;;;;13.68;8.45;;;;;;;6.99;82.50;102036.13;4983065;28;20486;-69
2022/06/02 05:07:48;;;;;;;12.75;8.57;;;;;;;7.04;82.72;102026.03;4988100;28;20037;-68
2022/06/02 05:10:38;;;;;;;14.07;8.30;;;;;;;7.10;82.49;102025.78;5002770;28;20521;-70
2022/06/02 05:13:37;;;;;;;15.30;9.10;;;;;;;7.16;82.82;102030.06;5009198;28;20033;-69
2022/06/02 05:16:30;;;;;;;17.95;9.40;;;;;;;7.25;82.54;102031.53;5005005;28;20033;-69
2022/06/02 05:19:17;;;;;;;14.82;9.32;;;;;;;7.31;83.02;102024.03;4999861;28;20110;-69
2022/06/02 05:22:20;;;;;;;15.25;9.35;;;;;;;7.41;82.37;102025.47;5010491;28;20029;-71
2022/06/02 05:25:07;;;;;;;20.25;13.00;;;;;;;7.51;83.67;102027.78;4980303;28;20045;-70
2022/06/02 05:28:11;;;;;;;22.20;14.35;;;;;;;7.60;83.72;102035.50;5001226;28;20042;-69
2022/06/02 05:31:13;;;;;;;25.65;14.98;;;;;;;7.67;83.70;102029.78;4990102;28;20042;-69
2022/06/02 05:33:55;;;;;;;24.70;15.65;;;;;;;7.77;84.83;102026.72;5008097;28;20148;-69
2022/06/02 05:36:54;;;;;;;26.90;16.23;;;;;;;7.86;84.39;102032.63;5009901;28;20049;-70
2022/06/02 05:39:46;;;;;;;31.38;18.65;;;;;;;7.99;86.37;102040.25;4989721;28;20474;-70
2022/06/02 05:42:43;;;;;;;31.75;18.23;;;;;;;8.08;86.13;102034.44;5005992;28;20073;-70
2022/06/02 05:45:27;;;;;;;37.03;19.63;;;;;;;8.18;88.02;102038.50;5003358;28;20048;-70
2022/06/02 05:48:23;;;;;;;33.08;19.38;;;;;;;8.26;87.74;102033.63;4999650;28;20050;-70
2022/06/02 05:51:02;;;;;;;36.10;20.95;;;;;;;8.36;88.93;102026.88;4996100;28;20038;-69
2022/06/02 05:53:34;;;;;;;37.47;22.17;;;;;;;8.47;89.85;102034.53;4987358;28;20120;-69
2022/06/02 05:56:26;;;;;;;37.40;21.30;;;;;;;8.61;90.14;102042.06;5006838;28;20034;-70
2022/06/02 05:59:07;;;;;;;38.42;22.58;;;;;;;8.74;90.31;102032.41;5004614;28;20053;-70
2022/06/02 06:01:56;;;;;;;39.88;22.77;;;;;;;8.86;89.80;102045.44;5002168;28;20042;-70
2022/06/02 06:04:43;;;;;;;37.42;21.77;;;;;;;8.96;90.13;102048.59;5002357;28;20208;-69
2022/06/02 06:07:41;;;;;;;35.88;21.02;;;;;;;9.04;90.08;102048.22;4972344;28;20366;-69
2022/06/02 06:10:12;;;;;;;36.28;20.77;;;;;;;9.15;90.12;102044.06;5005989;28;20042;-69
2022/06/02 06:13:01;;;;;;;31.00;20.05;;;;;;;9.24;89.46;102050.00;4987830;28;20037;-69
2022/06/02 06:15:35;;;;;;;34.53;20.58;;;;;;;9.31;89.68;102055.06;4987933;28;20033;-69
2022/06/02 06:18:23;;;;;;;34.05;21.48;;;;;;;9.41;89.00;102060.94;5002774;28;20038;-69
2022/06/02 06:21:11;;;;;;;30.92;19.45;;;;;;;9.47;89.36;102060.66;5007586;28;20042;-69
2022/06/02 06:24:01;;;;;;;33.70;20.65;;;;;;;9.57;89.51;102064.69;5003620;28;20049;-69
2022/06/02 06:26:54;;;;;;;28.33;18.58;;;;;;;9.67;87.92;102071.41;5007610;28;20533;-69
2022/06/02 06:30:05;;;;;;;30.98;18.20;;;;;;;9.79;88.12;102072.66;5007069;28;20458;-69
2022/06/02 06:33:07;;;;;;;24.52;17.48;;;;;;;9.88;87.64;102079.47;5001510;28;20037;-69
2022/06/02 06:36:10;;;;;;;31.27;17.10;;;;;;;9.96;87.76;102072.69;5007447;28;20092;-69
2022/06/02 06:38:45;;;;;;;23.38;15.77;;;;;;;10.11;87.87;102072.88;5002142;28;20026;-69
2022/06/02 06:41:13;;;;;;;23.08;15.68;;;;;;;10.17;87.27;102081.63;5007401;28;20532;-69
2022/06/02 06:43:47;;;;;;;23.95;15.85;;;;;;;10.29;86.40;102082.84;5005147;28;20084;-69
2022/06/02 06:46:24;;;;;;;21.13;14.88;;;;;;;10.44;85.75;102084.78;4986009;28;20034;-69
2022/06/02 06:48:52;;;;;;;22.90;15.57;;;;;;;10.57;85.52;102084.13;4988402;28;20044;-69
2022/06/02 06:51:32;;;;;;;21.73;15.50;;;;;;;10.64;85.30;102091.03;5003507;28;20105;-68
2022/06/02 06:54:08;;;;;;;16.88;11.52;;;;;;;10.75;84.05;102091.31;5004229;28;20109;-69
2022/06/02 06:56:51;;;;;;;17.75;12.13;;;;;;;10.83;83.63;102089.09;5008257;28;20042;-69
2022/06/02 06:59:35;;;;;;;14.55;11.07;;;;;;;10.95;83.38;102095.69;5007144;28;20119;-68
2022/06/02 07:02:16;;;;;;;18.67;12.38;;;;;;;11.04;82.88;102097.91;4993819;28;20096;-69
2022/06/02 07:05:12;;;;;;;20.50;12.77;;;;;;;11.16;83.09;102096.38;5007703;28;20038;-69
2022/06/02 07:08:05;;;;;;;19.00;12.65;;;;;;;11.26;83.26;102091.31;4995140;28;20073;-69
2022/06/02 07:10:45;;;;;;;18.55;11.85;;;;;;;11.36;81.96;102098.00;5003074;28;20088;-69
2022/06/02 07:13:23;;;;;;;17.75;12.75;;;;;;;11.49;81.99;102099.94;5003791;28;20480;-69
2022/06/02 07:16:20;;;;;;;21.40;13.23;;;;;;;11.71;81.80;102101.47;4987426;28;20042;-69
2022/06/02 07:19:11;;;;;;;20.23;12.02;;;;;;;12.05;80.55;102115.91;5000806;28;20453;-69
2022/06/02 07:22:25;;;;;;;14.52;11.43;;;;;;;12.39;80.13;102112.06;4979108;28;20056;-69
2022/06/02 07:25:15;;;;;;;15.93;10.73;;;;;;;12.52;79.38;102113.97;4936252;28;20034;-69
2022/06/02 07:27:46;;;;;;;16.00;11.48;;;;;;;12.57;77.94;102121.00;5000729;28;20097;-69
2022/06/02 07:30:23;;;;;;;14.88;11.20;;;;;;;12.65;76.63;102121.44;5004848;28;20482;-69
2022/06/02 07:33:07;;;;;;;14.63;11.63;;;;;;;12.82;76.95;102113.06;5003590;28;20497;-69
2022/06/02 07:35:54;;;;;;;19.20;12.43;;;;;;;13.06;77.62;102115.28;5006518;28;20048;-69
2022/06/02 07:38:51;;;;;;;13.77;10.77;;;;;;;13.40;76.26;102119.50;4987145;28;20038;-69
2022/06/02 07:41:41;;;;;;;14.75;10.48;;;;;;;13.68;74.38;102122.22;4971034;28;20116;-68
2022/06/02 07:44:34;;;;;;;11.75;8.88;;;;;;;13.95;73.65;102125.00;5005694;28;20432;-69
2022/06/02 07:47:28;;;;;;;11.13;9.27;;;;;;;14.18;73.48;102126.19;4992469;28;20042;-69
2022/06/02 07:50:05;;;;;;;12.02;8.82;;;;;;;14.32;70.93;102117.06;5005564;28;20049;-69
2022/06/02 07:52:36;;;;;;;11.90;9.18;;;;;;;14.39;69.37;102121.13;5005583;28;20588;-69
2022/06/02 07:55:13;;;;;;;11.30;7.93;;;;;;;14.24;66.66;102123.03;4988745;28;20038;-69
2022/06/02 07:57:57;;;;;;;12.77;10.45;;;;;;;14.21;71.12;102128.72;4999597;28;20103;-69
2022/06/02 08:00:27;;;;;;;12.07;9.48;;;;;;;14.63;71.09;102124.06;5005550;28;20042;-68
2022/06/02 08:03:13;;;;;;;14.20;9.90;;;;;;;15.25;72.08;102124.25;4994664;28;20131;-69
2022/06/02 08:05:51;;;;;;;12.70;9.52;;;;;;;15.89;68.69;102123.28;5005430;28;20045;-69
2022/06/02 08:08:40;;;;;;;10.60;9.30;;;;;;;16.78;68.10;102118.28;4995235;28;20042;-68
2022/06/02 08:11:27;;;;;;;10.77;8.55;;;;;;;17.46;62.74;102115.66;5004881;28;20532;-68
2022/06/02 08:14:12;;;;;;;11.52;8.82;;;;;;;18.07;61.78;102111.47;4997710;28;20059;-69
2022/06/02 08:17:13;;;;;;;9.45;7.70;;;;;;;18.73;61.56;102110.50;4998094;28;20459;-69
2022/06/02 08:20:06;;;;;;;11.07;7.10;;;;;;;19.30;59.70;102112.78;5005414;28;20062;-69
2022/06/02 08:22:37;;;;;;;7.82;7.03;;;;;;;19.68;57.16;102115.88;5000308;28;20042;-69
2022/06/02 08:25:11;;;;;;;8.27;7.30;;;;;;;19.44;52.97;102117.06;5002250;28;20350;-69
2022/06/02 08:27:52;;;;;;;8.80;6.93;;;;;;;19.16;55.58;102106.72;5005221;28;20524;-69
2022/06/02 08:30:42;;;;;;;8.05;7.25;;;;;;;18.85;52.19;102115.84;5004894;28;20125;-68
2022/06/02 08:33:33;;;;;;;6.97;6.28;;;;;;;19.61;55.74;102110.94;5003633;28;20102;-69
2022/06/02 08:36:07;;;;;;;7.53;6.28;;;;;;;20.28;53.79;102120.41;5004686;28;20041;-69
2022/06/02 08:38:49;;;;;;;8.20;6.38;;;;;;;20.33;51.55;102123.63;4984293;28;20065;-69
2022/06/02 08:41:33;;;;;;;8.10;7.30;;;;;;;20.06;51.04;102126.19;5007319;28;20022;-69
2022/06/02 08:44:37;;;;;;;10.45;6.75;;;;;;;19.91;53.70;102131.25;5008554;28;20033;-69
2022/06/02 08:47:33;;;;;;;9.13;7.10;;;;;;;20.14;53.21;102131.88;4970888;28;20092;-68
2022/06/02 08:50:30;;;;;;;8.00;7.20;;;;;;;20.19;51.51;102129.59;5008421;28;20496;-69
2022/06/02 08:53:17;;;;;;;7.70;6.93;;;;;;;20.48;51.07;102132.41;5006864;28;20108;-68
2022/06/02 08:55:49;;;;;;;7.93;6.78;;;;;;;20.02;48.69;102136.66;5009961;28;20076;-68
2022/06/02 08:58:33;;;;;;;7.90;6.45;;;;;;;19.96;48.78;102134.47;5007284;28;20061;-68
2022/06/02 09:01:13;;;;;;;10.35;7.60;;;;;;;20.05;51.10;102136.38;5002721;28;20868;-70
2022/06/02 09:04:15;;;;;;;8.00;6.20;;;;;;;20.45;52.72;102134.56;5002803;28;20410;-69
2022/06/02 09:07:05;;;;;;;8.40;7.50;;;;;;;20.59;50.09;102134.16;5001276;28;20536;-69
2022/06/02 09:09:56;;;;;;;8.82;7.60;;;;;;;19.79;50.88;102129.59;5008723;28;20141;-69
2022/06/02 09:12:38;;;;;;;8.25;7.20;;;;;;;19.57;51.58;102133.41;5009787;28;20057;-69
2022/06/02 09:15:30;;;;;;;9.18;7.40;;;;;;;19.66;49.61;102127.06;4990961;28;20100;-68
2022/06/02 09:18:10;;;;;;;8.68;7.78;;;;;;;19.19;48.35;102123.03;4998666;28;20473;-69
2022/06/02 09:20:48;;;;;;;6.13;5.53;;;;;;;19.40;53.04;102125.75;5004333;28;20820;-69
2022/06/02 09:23:16;;;;;;;7.47;6.25;;;;;;;20.07;54.27;102128.81;5010287;28;20041;-69
2022/06/02 09:26:09;;;;;;;6.57;5.60;;;;;;;20.62;51.16;102120.91;5007103;28;20050;-69
2022/06/02 09:28:49;;;;;;;;;;;;;;;20.42;50.88;102118.25;5009145;28;20072;-68
2022/06/02 09:31:22;;;;;;;9.43;6.25;;;;;;;19.95;47.88;102127.16;5001498;28;20353;-68
2022/06/02 09:34:24;;;;;;;7.43;6.07;;;;;;;20.30;49.80;102131.34;4995261;28;20069;-68
2022/06/02 09:37:22;;;;;;;6.55;5.50;;;;;;;20.97;50.27;102115.78;5007175;28;20091;-69
2022/06/02 09:40:19;;;;;;;5.90;5.30;;;;;;;21.56;50.47;102115.50;4942082;28;20461;-68
2022/06/02 09:43:22;;;;;;;7.00;5.97;;;;;;;21.64;46.00;102117.53;5006828;28;20030;-69
2022/06/02 09:46:08;;;;;;;9.38;7.00;;;;;;;22.09;48.45;102109.25;4984828;28;20401;-69
2022/06/02 09:48:56;;;;;;;8.65;6.10;;;;;;;22.51;47.36;102105.03;5004835;28;20048;-69
2022/06/02 09:51:37;;;;;;;6.05;5.40;;;;;;;22.41;42.03;102107.91;5007351;28;20053;-69
2022/06/02 09:54:18;;;;;;;8.00;6.83;;;;;;;22.17;44.64;102114.06;5008458;28;20076;-68
2022/06/02 09:57:55;;;;;;;7.10;6.35;;;;;;;22.58;45.77;102114.50;5009053;28;20111;-68
2022/06/02 10:00:04;;;;;;;9.23;7.55;;;;;;;21.83;45.50;102111.91;5007220;28;20125;-68
2022/06/02 10:02:51;;;;;;;8.47;6.13;;;;;;;22.09;47.37;102105.59;4999519;28;20052;-69
2022/06/02 10:05:32;;;;;;;7.20;6.35;;;;;;;22.62;44.58;102108.47;5008110;28;20343;-68
2022/06/02 10:08:07;;;;;;;8.32;7.53;;;;;;;22.95;43.27;102106.00;4991414;28;20088;-69
2022/06/02 10:11:02;;;;;;;7.85;6.40;;;;;;;22.95;43.70;102116.25;5002594;28;20034;-69
2022/06/02 10:13:42;;;;;;;6.65;5.95;;;;;;;22.79;42.79;102109.47;4974431;28;20042;-69
2022/06/02 10:16:25;;;;;;;5.07;4.47;;;;;;;23.32;42.34;102108.53;4992290;28;20441;-69
2022/06/02 10:18:56;;;;;;;5.25;4.47;;;;;;;23.96;41.56;102108.16;5006579;28;20046;-68
2022/06/02 10:21:44;;;;;;;6.95;6.25;;;;;;;23.92;40.39;102102.94;5008024;28;20099;-69
2022/06/02 10:25:12;;;;;;;7.05;6.30;;;;;;;23.74;42.26;102109.66;5003140;28;20053;-68
2022/06/02 10:27:37;;;;;;;6.70;6.10;;;;;;;22.83;39.91;102094.25;4928030;29;20387;-68
2022/06/02 10:30:27;;;;;;;6.50;5.55;;;;;;;23.47;43.72;102096.78;4909803;29;20040;-68
2022/06/02 10:33:06;;;;;;;9.57;7.10;;;;;;;23.54;40.00;102092.31;4976305;28;20438;-69
2022/06/02 10:35:43;;;;;;;7.40;5.70;;;;;;;23.36;39.39;102098.81;5006859;28;20050;-69
2022/06/02 10:38:17;;;;;;;8.10;6.25;;;;;;;23.61;37.74;102101.72;5008585;28;20042;-68
2022/06/02 10:41:10;;;;;;;7.53;5.78;;;;;;;23.86;39.83;102099.97;5001484;28;20421;-68
2022/06/02 10:43:53;;;;;;;7.00;6.40;;;;;;;23.91;37.97;102094.75;4988480;28;20095;-69
2022/06/02 10:46:39;;;;;;;8.40;6.28;;;;;;;23.08;36.27;102092.56;4992793;28;20088;-68
2022/06/02 10:49:25;;;;;;;9.30;7.63;;;;;;;22.53;38.97;102092.78;5005380;28;20033;-69
2022/06/02 10:52:29;;;;;;;7.60;6.88;;;;;;;23.05;43.79;102086.47;5005995;28;20113;-69
2022/06/02 10:55:22;;;;;;;6.63;6.00;;;;;;;23.58;40.12;102082.59;5005112;28;20161;-69
2022/06/02 10:58:25;;;;;;;6.07;5.47;;;;;;;24.06;39.62;102092.19;5007294;28;20037;-69
2022/06/02 11:01:09;;;;;;;6.32;5.40;;;;;;;24.33;35.57;102083.56;5001487;28;20091;-70
2022/06/02 11:03:53;;;;;;;5.47;4.97;;;;;;;24.40;36.85;102072.69;5000354;28;20046;-69
2022/06/02 11:06:27;;;;;;;4.68;4.28;;;;;;;24.33;36.68;102079.94;5004682;28;20089;-69
2022/06/02 11:09:17;;;;;;;8.00;5.10;;;;;;;24.47;36.57;102078.41;5007401;28;20121;-69
2022/06/02 11:12:17;;;;;;;10.07;7.45;;;;;;;25.03;37.38;102073.88;5008330;28;20042;-69
2022/06/02 11:15:22;;;;;;;6.60;5.88;;;;;;;25.39;38.44;102079.94;5004733;28;20045;-69
2022/06/02 11:18:17;;;;;;;8.52;6.93;;;;;;;25.06;34.89;102073.53;4998925;28;20376;-68
2022/06/02 11:21:08;;;;;;;5.93;5.32;;;;;;;25.43;37.18;102067.38;5008286;28;20030;-69
2022/06/02 11:23:45;;;;;;;6.57;5.43;;;;;;;25.50;37.49;102081.47;4972818;28;20038;-69
2022/06/02 11:26:28;;;;;;;5.28;4.60;;;;;;;25.85;36.24;102077.34;5007901;28;20125;-69
2022/06/02 11:29:00;;;;;;;5.28;4.78;;;;;;;25.92;34.07;102065.28;4995170;28;20029;-70
2022/06/02 11:31:40;;;;;;;6.40;5.50;;;;;;;25.81;30.29;102062.91;4998023;28;20089;-69
2022/06/02 11:34:34;;;;;;;6.43;4.78;;;;;;;25.29;34.93;102074.56;4995859;28;20125;-69
2022/06/02 11:37:25;;;;;;;5.95;5.43;;;;;;;25.42;36.78;102065.66;5007462;28;20544;-69
2022/06/02 11:40:13;;;;;;;6.15;5.55;;;;;;;25.22;36.83;102067.09;5007630;28;20038;-69
2022/06/02 11:43:00;;;;;;;5.72;5.22;;;;;;;25.44;36.18;102067.19;4997089;28;20041;-69
2022/06/02 11:46:09;;;;;;;6.57;5.78;;;;;;;25.27;36.61;102068.28;5006730;28;20061;-70
2022/06/02 11:49:02;;;;;;;6.60;6.00;;;;;;;25.28;35.53;102058.91;5002748;28;20096;-70
2022/06/02 11:51:58;;;;;;;6.57;5.18;;;;;;;25.42;37.37;102055.38;5004813;28;20140;-72
2022/06/02 11:54:36;;;;;;;9.55;6.13;;;;;;;25.36;35.25;102050.50;4994653;28;20485;-71
2022/06/02 11:57:49;;;;;;;6.32;5.72;;;;;;;25.56;37.41;102050.09;5001735;28;20112;-71
2022/06/02 12:00:36;;;;;;;7.78;6.53;;;;;;;25.64;37.34;102039.75;4970770;28;20141;-72
2022/06/02 12:03:08;;;;;;;6.43;5.82;;;;;;;25.68;35.13;102043.94;4995080;28;20070;-72
2022/06/02 12:06:09;;;;;;;7.32;5.30;;;;;;;25.43;37.91;102042.31;5006768;28;20042;-71
2022/06/02 12:09:02;;;;;;;6.75;6.15;;;;;;;24.96;35.20;102036.66;5003649;28;20461;-70
2022/06/02 12:11:47;;;;;;;6.57;4.85;;;;;;;25.26;39.81;102033.13;4986366;28;20046;-72
2022/06/02 12:14:27;;;;;;;6.55;5.47;;;;;;;25.59;37.25;102030.22;4972711;28;20026;-72
2022/06/02 12:17:23;;;;;;;7.80;6.88;;;;;;;25.24;30.95;102029.66;4987405;28;20045;-72
2022/06/02 12:20:20;;;;;;;6.40;5.80;;;;;;;24.98;33.72;102029.00;4986658;28;20049;-71
2022/06/02 12:22:53;;;;;;;6.07;5.55;;;;;;;25.37;36.12;102018.81;5009071;28;20038;-71
2022/06/02 12:25:56;;;;;;;6.93;6.25;;;;;;;25.68;34.77;102013.28;5008042;28;20033;-71
2022/06/02 12:29:05;;;;;;;7.30;6.60;;;;;;;25.48;33.87;102011.97;5008594;28;20037;-71
2022/06/02 12:31:42;;;;;;;7.22;6.53;;;;;;;25.24;35.75;102009.28;5002457;28;20034;-71
2022/06/02 12:34:40;;;;;;;5.00;4.50;;;;;;;25.52;32.99;102018.06;4999462;28;20057;-72
2022/06/02 12:37:26;;;;;;;5.45;4.63;;;;;;;25.35;32.38;102011.69;5000867;28;20473;-71
2022/06/02 12:40:02;;;;;;;4.70;4.30;;;;;;;25.39;33.09;102019.50;5009728;28;20185;-71
2022/06/02 12:43:02;;;;;;;5.32;4.93;;;;;;;25.40;34.27;102012.00;5008900;28;20062;-71
2022/06/02 12:45:49;;;;;;;4.68;4.28;;;;;;;24.93;33.23;102008.09;5007943;28;20029;-71
2022/06/02 12:48:50;;;;;;;6.55;5.05;;;;;;;24.96;35.80;101997.69;5002748;28;20038;-72
2022/06/02 12:51:21;;;;;;;5.53;5.03;;;;;;;24.72;33.35;101998.59;5000609;28;20056;-71
2022/06/02 12:54:18;;;;;;;5.68;5.18;;;;;;;24.82;34.00;101991.78;5010628;28;20030;-69